sensor_id;sensor_type;location;lat;lon;timestamp;pressure;altitude;pressure_sealevel;temperature;humidity
63819;BME280;49970;54.976;73.248;2022-12-20T00:01:29;100173.84;;;-2.51;91.66
63819;BME280;49970;54.976;73.248;2022-12-20T00:04:05;100179.09;;;-2.53;92.01
63819;BME280;49970;54.976;73.248;2022-12-20T00:06:35;100161.06;;;-2.59;92.02
63819;BME280;49970;54.976;73.248;2022-12-20T00:09:04;100177.41;;;-2.55;92.40
63819;BME280;49970;54.976;73.248;2022-12-20T00:11:30;100172.25;;;-2.57;92.30
63819;BME280;49970;54.976;73.248;2022-12-20T00:13:57;100167.91;;;-2.56;92.40
63819;BME280;49970;54.976;73.248;2022-12-20T00:16:26;100171.41;;;-2.57;92.64
63819;BME280;49970;54.976;73.248;2022-12-20T00:19:00;100161.94;;;-2.58;92.87
63819;BME280;49970;54.976;73.248;2022-12-20T00:21:27;100157.69;;;-2.64;92.55
63819;BME280;49970;54.976;73.248;2022-12-20T00:23:54;100156.84;;;-2.64;92.55
63819;BME280;49970;54.976;73.248;2022-12-20T00:26:23;100166.25;;;-2.59;92.91
63819;BME280;49970;54.976;73.248;2022-12-20T00:28:50;100160.19;;;-2.59;93.21
63819;BME280;49970;54.976;73.248;2022-12-20T00:31:19;100164.56;;;-2.61;93.16
63819;BME280;49970;54.976;73.248;2022-12-20T00:33:47;100160.19;;;-2.59;93.36
63819;BME280;49970;54.976;73.248;2022-12-20T00:36:14;100145.56;;;-2.62;93.40
63819;BME280;49970;54.976;73.248;2022-12-20T00:38:47;100155.91;;;-2.60;93.64
63819;BME280;49970;54.976;73.248;2022-12-20T00:41:21;100154.19;;;-2.61;93.60
63819;BME280;49970;54.976;73.248;2022-12-20T00:43:47;100157.69;;;-2.64;93.65
63819;BME280;49970;54.976;73.248;2022-12-20T00:46:19;100153.34;;;-2.62;93.81
63819;BME280;49970;54.976;73.248;2022-12-20T00:48:48;100151.66;;;-2.64;94.23
63819;BME280;49970;54.976;73.248;2022-12-20T00:51:21;100127.63;;;-2.72;93.97
63819;BME280;49970;54.976;73.248;2022-12-20T00:53:56;100154.28;;;-2.66;94.03
63819;BME280;49970;54.976;73.248;2022-12-20T00:56:23;100155.09;;;-2.62;94.25
63819;BME280;49970;54.976;73.248;2022-12-20T00:58:49;100147.31;;;-2.62;93.91
63819;BME280;49970;54.976;73.248;2022-12-20T01:01:28;100155.94;;;-2.62;94.17
63819;BME280;49970;54.976;73.248;2022-12-20T01:03:56;100155.94;;;-2.62;94.15
63819;BME280;49970;54.976;73.248;2022-12-20T01:06:23;100150.00;;;-2.67;94.22
63819;BME280;49970;54.976;73.248;2022-12-20T01:09:00;100145.56;;;-2.62;94.57
63819;BME280;49970;54.976;73.248;2022-12-20T01:11:38;100138.75;;;-2.66;94.65
63819;BME280;49970;54.976;73.248;2022-12-20T01:14:11;100131.72;;;-2.61;94.23
63819;BME280;49970;54.976;73.248;2022-12-20T01:16:44;100142.03;;;-2.58;94.16
63819;BME280;49970;54.976;73.248;2022-12-20T01:19:12;100130.78;;;-2.57;94.13
63819;BME280;49970;54.976;73.248;2022-12-20T01:21:39;100134.22;;;-2.56;93.96
63819;BME280;49970;54.976;73.248;2022-12-20T01:24:11;100127.31;;;-2.57;93.68
63819;BME280;49970;54.976;73.248;2022-12-20T01:26:37;100122.13;;;-2.57;93.57
63819;BME280;49970;54.976;73.248;2022-12-20T01:29:03;100116.06;;;-2.56;93.62
63819;BME280;49970;54.976;73.248;2022-12-20T01:31:30;100109.19;;;-2.57;93.64
63819;BME280;49970;54.976;73.248;2022-12-20T01:33:58;100112.56;;;-2.54;93.56
63819;BME280;49970;54.976;73.248;2022-12-20T01:36:30;100073.97;;;-2.69;93.34
63819;BME280;49970;54.976;73.248;2022-12-20T01:39:02;100098.84;;;-2.59;93.95
63819;BME280;49970;54.976;73.248;2022-12-20T01:41:31;100108.22;;;-2.53;93.92
63819;BME280;49970;54.976;73.248;2022-12-20T01:46:46;100098.66;;;-2.49;94.18
63819;BME280;49970;54.976;73.248;2022-12-20T01:54:28;100103.78;;;-2.46;94.22
63819;BME280;49970;54.976;73.248;2022-12-20T01:56:59;100081.31;;;-2.47;94.44
63819;BME280;49970;54.976;73.248;2022-12-20T01:59:27;100087.38;;;-2.48;94.39
63819;BME280;49970;54.976;73.248;2022-12-20T02:01:57;100087.28;;;-2.44;94.33
63819;BME280;49970;54.976;73.248;2022-12-20T02:04:26;100081.19;;;-2.41;94.56
63819;BME280;49970;54.976;73.248;2022-12-20T02:06:52;100089.81;;;-2.41;94.47
63819;BME280;49970;54.976;73.248;2022-12-20T02:09:19;100083.78;;;-2.41;94.55
63819;BME280;49970;54.976;73.248;2022-12-20T02:11:53;100083.69;;;-2.38;94.53
63819;BME280;49970;54.976;73.248;2022-12-20T02:26:18;100075.78;;;-2.32;93.40
63819;BME280;49970;54.976;73.248;2022-12-20T02:29:02;100081.75;;;-2.29;93.31
63819;BME280;49970;54.976;73.248;2022-12-20T02:31:41;100080.09;;;-2.31;93.31
63819;BME280;49970;54.976;73.248;2022-12-20T02:34:09;100074.22;;;-2.39;92.98
63819;BME280;49970;54.976;73.248;2022-12-20T02:36:47;100070.66;;;-2.34;93.02
63819;BME280;49970;54.976;73.248;2022-12-20T02:39:15;100071.50;;;-2.35;92.55
63819;BME280;49970;54.976;73.248;2022-12-20T02:41:46;100073.13;;;-2.29;92.57
63819;BME280;49970;54.976;73.248;2022-12-20T02:44:18;100069.69;;;-2.30;92.44
63819;BME280;49970;54.976;73.248;2022-12-20T02:47:07;100081.03;;;-2.34;92.54
63819;BME280;49970;54.976;73.248;2022-12-20T02:49:36;100060.50;;;-2.44;92.61
63819;BME280;49970;54.976;73.248;2022-12-20T02:52:09;100077.81;;;-2.45;92.15
63819;BME280;49970;54.976;73.248;2022-12-20T02:54:47;100085.38;;;-2.36;92.48
63819;BME280;49970;54.976;73.248;2022-12-20T02:57:28;100092.31;;;-2.36;92.29
63819;BME280;49970;54.976;73.248;2022-12-20T03:00:09;100098.41;;;-2.39;92.12
63819;BME280;49970;54.976;73.248;2022-12-20T03:02:48;100098.50;;;-2.42;92.04
63819;BME280;49970;54.976;73.248;2022-12-20T03:05:44;100103.69;;;-2.43;91.76
63819;BME280;49970;54.976;73.248;2022-12-20T03:08:12;100083.09;;;-2.51;91.85
63819;BME280;49970;54.976;73.248;2022-12-20T03:10:42;100108.06;;;-2.45;92.06
63819;BME280;49970;54.976;73.248;2022-12-20T03:13:09;100098.75;;;-2.54;91.53
63819;BME280;49970;54.976;73.248;2022-12-20T03:15:42;100102.13;;;-2.51;91.29
63819;BME280;49970;54.976;73.248;2022-12-20T03:18:08;100098.84;;;-2.59;91.08
63819;BME280;49970;54.976;73.248;2022-12-20T03:20:35;100106.59;;;-2.57;90.62
63819;BME280;49970;54.976;73.248;2022-12-20T03:23:01;100103.25;;;-2.62;90.53
63819;BME280;49970;54.976;73.248;2022-12-20T03:25:28;100104.03;;;-2.60;90.43
63819;BME280;49970;54.976;73.248;2022-12-20T03:27:56;100106.72;;;-2.63;89.97
63819;BME280;49970;54.976;73.248;2022-12-20T03:30:24;100093.81;;;-2.68;90.17
63819;BME280;49970;54.976;73.248;2022-12-20T03:33:01;100112.00;;;-2.69;89.74
63819;BME280;49970;54.976;73.248;2022-12-20T03:35:31;100104.38;;;-2.77;89.41
63819;BME280;49970;54.976;73.248;2022-12-20T03:37:58;100111.31;;;-2.78;89.66
63819;BME280;49970;54.976;73.248;2022-12-20T03:40:24;100114.88;;;-2.83;90.19
63819;BME280;49970;54.976;73.248;2022-12-20T03:43:01;100125.31;;;-2.86;90.49
63819;BME280;49970;54.976;73.248;2022-12-20T03:45:27;100119.31;;;-2.90;90.81
63819;BME280;49970;54.976;73.248;2022-12-20T03:47:58;100104.00;;;-3.02;90.58
63819;BME280;49970;54.976;73.248;2022-12-20T03:50:27;100107.44;;;-3.02;90.50
63819;BME280;49970;54.976;73.248;2022-12-20T03:52:59;100106.66;;;-3.04;90.54
63819;BME280;49970;54.976;73.248;2022-12-20T03:55:26;100121.34;;;-3.04;90.28
63819;BME280;49970;54.976;73.248;2022-12-20T03:57:52;100085.44;;;-3.24;90.29
63819;BME280;49970;54.976;73.248;2022-12-20T04:00:26;100114.50;;;-3.08;90.25
63819;BME280;49970;54.976;73.248;2022-12-20T04:03:03;100112.84;;;-3.12;89.91
63819;BME280;49970;54.976;73.248;2022-12-20T04:05:30;100106.78;;;-3.11;90.00
63819;BME280;49970;54.976;73.248;2022-12-20T04:07:57;100117.22;;;-3.16;89.59
63819;BME280;49970;54.976;73.248;2022-12-20T04:10:23;100117.19;;;-3.13;89.12
63819;BME280;49970;54.976;73.248;2022-12-20T04:13:00;100112.06;;;-3.16;88.95
63819;BME280;49970;54.976;73.248;2022-12-20T04:15:35;100116.34;;;-3.15;88.72
63819;BME280;49970;54.976;73.248;2022-12-20T04:18:02;100112.06;;;-3.16;88.34
63819;BME280;49970;54.976;73.248;2022-12-20T04:20:28;100112.06;;;-3.16;88.83
63819;BME280;49970;54.976;73.248;2022-12-20T04:23:08;100117.28;;;-3.17;88.04
63819;BME280;49970;54.976;73.248;2022-12-20T04:25:36;100106.97;;;-3.20;88.06
63819;BME280;49970;54.976;73.248;2022-12-20T04:28:02;100110.44;;;-3.21;87.35
63819;BME280;49970;54.976;73.248;2022-12-20T04:30:29;100103.53;;;-3.22;87.65
63819;BME280;49970;54.976;73.248;2022-12-20T04:32:55;100095.78;;;-3.24;87.69
63819;BME280;49970;54.976;73.248;2022-12-20T04:35:22;100106.16;;;-3.24;87.77
63819;BME280;49970;54.976;73.248;2022-12-20T04:37:48;100112.22;;;-3.25;87.82
63819;BME280;49970;54.976;73.248;2022-12-20T04:40:15;100105.31;;;-3.24;87.94
63819;BME280;49970;54.976;73.248;2022-12-20T04:42:52;100095.97;;;-3.33;87.69
63819;BME280;49970;54.976;73.248;2022-12-20T04:45:24;100097.56;;;-3.28;87.42
63819;BME280;49970;54.976;73.248;2022-12-20T04:47:51;100091.56;;;-3.28;86.97
63819;BME280;49970;54.976;73.248;2022-12-20T04:50:24;100088.25;;;-3.36;86.84
63819;BME280;49970;54.976;73.248;2022-12-20T04:52:50;100097.66;;;-3.32;87.10
63819;BME280;49970;54.976;73.248;2022-12-20T04:55:52;100089.09;;;-3.34;86.82
63819;BME280;49970;54.976;73.248;2022-12-20T04:58:18;100088.25;;;-3.36;86.74
63819;BME280;49970;54.976;73.248;2022-12-20T05:00:47;100099.44;;;-3.36;87.41
63819;BME280;49970;54.976;73.248;2022-12-20T05:03:23;100103.91;;;-3.42;87.78
63819;BME280;49970;54.976;73.248;2022-12-20T05:05:50;100090.88;;;-3.39;87.68
63819;BME280;49970;54.976;73.248;2022-12-20T05:08:17;100097.91;;;-3.46;88.16
63819;BME280;49970;54.976;73.248;2022-12-20T05:10:54;100103.88;;;-3.41;88.72
63819;BME280;49970;54.976;73.248;2022-12-20T05:13:21;100102.22;;;-3.45;89.34
63819;BME280;49970;54.976;73.248;2022-12-20T05:15:52;100108.25;;;-3.44;89.52
63819;BME280;49970;54.976;73.248;2022-12-20T05:18:24;100103.19;;;-3.51;89.74
63819;BME280;49970;54.976;73.248;2022-12-20T05:21:02;100081.81;;;-3.63;90.13
63819;BME280;49970;54.976;73.248;2022-12-20T05:23:54;100118.69;;;-3.49;90.24
63819;BME280;49970;54.976;73.248;2022-12-20T05:27:08;100117.81;;;-3.49;90.70
63819;BME280;49970;54.976;73.248;2022-12-20T05:29:35;100116.97;;;-3.52;91.07
63819;BME280;49970;54.976;73.248;2022-12-20T05:32:01;100122.16;;;-3.52;91.45
63819;BME280;49970;54.976;73.248;2022-12-20T05:34:27;100121.34;;;-3.54;92.14
63819;BME280;49970;54.976;73.248;2022-12-20T05:36:55;100118.75;;;-3.54;92.25
63819;BME280;49970;54.976;73.248;2022-12-20T05:39:34;100114.47;;;-3.56;92.59
63819;BME280;49970;54.976;73.248;2022-12-20T05:42:07;100118.78;;;-3.57;92.49
63819;BME280;49970;54.976;73.248;2022-12-20T05:44:33;100098.38;;;-3.72;92.81
63819;BME280;49970;54.976;73.248;2022-12-20T05:47:00;100115.31;;;-3.56;92.63
63819;BME280;49970;54.976;73.248;2022-12-20T05:49:35;100120.50;;;-3.54;93.24
63819;BME280;49970;54.976;73.248;2022-12-20T05:52:04;100116.22;;;-3.57;93.06
63819;BME280;49970;54.976;73.248;2022-12-20T05:54:31;100111.97;;;-3.61;93.29
63819;BME280;49970;54.976;73.248;2022-12-20T05:57:17;100124.00;;;-3.58;94.08
63819;BME280;49970;54.976;73.248;2022-12-20T05:59:45;100116.22;;;-3.57;93.91
63819;BME280;49970;54.976;73.248;2022-12-20T06:02:22;100120.50;;;-3.56;93.59
63819;BME280;49970;54.976;73.248;2022-12-20T06:04:53;100119.66;;;-3.55;93.69
63819;BME280;49970;54.976;73.248;2022-12-20T06:07:22;100127.34;;;-3.52;93.58
63819;BME280;49970;54.976;73.248;2022-12-20T06:10:06;100114.38;;;-3.52;93.78
63819;BME280;49970;54.976;73.248;2022-12-20T06:12:44;100095.63;;;-3.63;93.24
63819;BME280;49970;54.976;73.248;2022-12-20T06:15:11;100120.38;;;-3.46;93.80
63819;BME280;49970;54.976;73.248;2022-12-20T06:17:38;100094.69;;;-3.59;93.77
63819;BME280;49970;54.976;73.248;2022-12-20T06:20:15;100122.03;;;-3.42;94.12
63819;BME280;49970;54.976;73.248;2022-12-20T06:22:50;100111.72;;;-3.45;93.73
63819;BME280;49970;54.976;73.248;2022-12-20T06:25:18;100102.38;;;-3.54;93.51
63819;BME280;49970;54.976;73.248;2022-12-20T06:27:46;100124.56;;;-3.41;93.96
63819;BME280;49970;54.976;73.248;2022-12-20T06:30:15;100124.53;;;-3.38;93.95
63819;BME280;49970;54.976;73.248;2022-12-20T06:32:54;100117.63;;;-3.39;93.97
63819;BME280;49970;54.976;73.248;2022-12-20T06:35:21;100115.97;;;-3.41;93.91
63819;BME280;49970;54.976;73.248;2022-12-20T06:37:48;100128.78;;;-3.35;93.86
63819;BME280;49970;54.976;73.248;2022-12-20T06:40:14;100130.53;;;-3.34;94.31
63819;BME280;49970;54.976;73.248;2022-12-20T06:42:40;100126.28;;;-3.38;94.22
63819;BME280;49970;54.976;73.248;2022-12-20T06:45:07;100130.53;;;-3.34;94.24
63819;BME280;49970;54.976;73.248;2022-12-20T06:47:39;100127.94;;;-3.34;94.72
63819;BME280;49970;54.976;73.248;2022-12-20T06:50:06;100133.09;;;-3.34;94.28
63819;BME280;49970;54.976;73.248;2022-12-20T06:52:33;100114.19;;;-3.38;94.79
63819;BME280;49970;54.976;73.248;2022-12-20T06:54:59;100118.47;;;-3.37;94.47
63819;BME280;49970;54.976;73.248;2022-12-20T06:57:26;100127.09;;;-3.36;94.13
63819;BME280;49970;54.976;73.248;2022-12-20T06:59:53;100109.94;;;-3.42;94.33
63819;BME280;49970;54.976;73.248;2022-12-20T07:02:19;100114.25;;;-3.44;94.83
63819;BME280;49970;54.976;73.248;2022-12-20T07:04:46;100122.75;;;-3.34;94.67
63819;BME280;49970;54.976;73.248;2022-12-20T07:07:12;100116.69;;;-3.33;94.58
63819;BME280;49970;54.976;73.248;2022-12-20T07:09:38;100115.00;;;-3.36;94.80
63819;BME280;49970;54.976;73.248;2022-12-20T07:12:07;100123.59;;;-3.34;95.09
63819;BME280;49970;54.976;73.248;2022-12-20T07:14:34;100104.81;;;-3.45;94.91
63819;BME280;49970;54.976;73.248;2022-12-20T07:17:10;100109.94;;;-3.43;95.49
63819;BME280;49970;54.976;73.248;2022-12-20T07:19:36;100124.53;;;-3.38;95.07
63819;BME280;49970;54.976;73.248;2022-12-20T07:22:03;100128.81;;;-3.37;95.18
63819;BME280;49970;54.976;73.248;2022-12-20T07:24:34;100122.78;;;-3.37;95.78
63819;BME280;49970;54.976;73.248;2022-12-20T07:27:01;100126.16;;;-3.32;95.38
63819;BME280;49970;54.976;73.248;2022-12-20T07:29:27;100115.00;;;-3.36;94.91
63819;BME280;49970;54.976;73.248;2022-12-20T07:32:00;100121.88;;;-3.35;95.47
63819;BME280;49970;54.976;73.248;2022-12-20T07:34:26;100132.19;;;-3.30;95.53
63819;BME280;49970;54.976;73.248;2022-12-20T07:36:52;100125.25;;;-3.31;95.34
63819;BME280;49970;54.976;73.248;2022-12-20T07:39:19;100129.56;;;-3.29;95.39
63819;BME280;49970;54.976;73.248;2022-12-20T07:41:54;100136.44;;;-3.28;95.26
63819;BME280;49970;54.976;73.248;2022-12-20T07:44:22;100125.19;;;-3.27;95.59
63819;BME280;49970;54.976;73.248;2022-12-20T07:46:48;100112.41;;;-3.34;94.99
63819;BME280;49970;54.976;73.248;2022-12-20T07:49:14;100102.84;;;-3.32;95.30
63819;BME280;49970;54.976;73.248;2022-12-20T07:51:51;100115.63;;;-3.23;95.02
63819;BME280;49970;54.976;73.248;2022-12-20T07:54:32;100118.22;;;-3.21;94.81
63819;BME280;49970;54.976;73.248;2022-12-20T07:57:05;100102.03;;;-3.34;95.26
63819;BME280;49970;54.976;73.248;2022-12-20T07:59:44;100102.81;;;-3.31;94.94
63819;BME280;49970;54.976;73.248;2022-12-20T08:02:17;100117.31;;;-3.22;94.72
63819;BME280;49970;54.976;73.248;2022-12-20T08:04:46;100110.53;;;-3.28;94.73
63819;BME280;49970;54.976;73.248;2022-12-20T08:07:13;100120.75;;;-3.20;94.56
63819;BME280;49970;54.976;73.248;2022-12-20T08:09:41;100110.34;;;-3.18;94.54
63819;BME280;49970;54.976;73.248;2022-12-20T08:12:12;100104.38;;;-3.22;94.93
63819;BME280;49970;54.976;73.248;2022-12-20T08:14:40;100089.91;;;-3.32;94.89
63819;BME280;49970;54.976;73.248;2022-12-20T08:17:07;100103.47;;;-3.19;94.88
63819;BME280;49970;54.976;73.248;2022-12-20T08:19:33;100101.78;;;-3.22;94.72
63819;BME280;49970;54.976;73.248;2022-12-20T08:22:08;100097.50;;;-3.21;94.73
63819;BME280;49970;54.976;73.248;2022-12-20T08:24:45;100107.81;;;-3.20;94.65
63819;BME280;49970;54.976;73.248;2022-12-20T08:27:11;100113.03;;;-3.21;94.58
63819;BME280;49970;54.976;73.248;2022-12-20T08:29:38;100103.53;;;-3.21;94.53
63819;BME280;49970;54.976;73.248;2022-12-20T08:32:04;100110.31;;;-3.15;94.58
63819;BME280;49970;54.976;73.248;2022-12-20T08:34:40;100111.16;;;-3.15;94.56
63819;BME280;49970;54.976;73.248;2022-12-20T08:37:14;100118.03;;;-3.14;94.78
63819;BME280;49970;54.976;73.248;2022-12-20T08:39:40;100104.41;;;-3.23;94.94
63819;BME280;49970;54.976;73.248;2022-12-20T08:42:07;100112.84;;;-3.12;94.57
63819;BME280;49970;54.976;73.248;2022-12-20T08:44:33;100107.66;;;-3.12;94.77
63819;BME280;49970;54.976;73.248;2022-12-20T08:46:59;100117.19;;;-3.13;94.93
63819;BME280;49970;54.976;73.248;2022-12-20T08:49:25;100123.19;;;-3.11;94.93
63819;BME280;49970;54.976;73.248;2022-12-20T08:51:51;100118.88;;;-3.12;94.90
63819;BME280;49970;54.976;73.248;2022-12-20T08:54:27;100116.28;;;-3.12;94.78
63819;BME280;49970;54.976;73.248;2022-12-20T08:56:54;100114.56;;;-3.11;94.93
63819;BME280;49970;54.976;73.248;2022-12-20T08:59:20;100118.00;;;-3.11;95.13
63819;BME280;49970;54.976;73.248;2022-12-20T09:01:48;100106.75;;;-3.10;94.92
63819;BME280;49970;54.976;73.248;2022-12-20T09:04:15;100106.97;;;-3.20;94.95
63819;BME280;49970;54.976;73.248;2022-12-20T09:06:51;100115.41;;;-3.11;94.79
63819;BME280;49970;54.976;73.248;2022-12-20T09:09:17;100124.06;;;-3.12;95.20
63819;BME280;49970;54.976;73.248;2022-12-20T09:11:44;100118.03;;;-3.12;95.12
63819;BME280;49970;54.976;73.248;2022-12-20T09:14:15;100124.88;;;-3.08;94.80
63819;BME280;49970;54.976;73.248;2022-12-20T09:16:42;100124.88;;;-3.08;94.95
63819;BME280;49970;54.976;73.248;2022-12-20T09:19:11;100103.44;;;-3.16;95.26
63819;BME280;49970;54.976;73.248;2022-12-20T09:21:37;100121.38;;;-3.07;94.89
63819;BME280;49970;54.976;73.248;2022-12-20T09:24:04;100108.56;;;-3.13;95.19
63819;BME280;49970;54.976;73.248;2022-12-20T09:26:31;100116.25;;;-3.10;95.28
63819;BME280;49970;54.976;73.248;2022-12-20T09:29:00;100118.88;;;-3.12;95.40
63819;BME280;49970;54.976;73.248;2022-12-20T09:31:30;100125.78;;;-3.11;95.48
63819;BME280;49970;54.976;73.248;2022-12-20T09:33:58;100131.81;;;-3.10;95.31
63819;BME280;49970;54.976;73.248;2022-12-20T09:36:26;100124.97;;;-3.14;95.33
63819;BME280;49970;54.976;73.248;2022-12-20T09:38:53;100105.16;;;-3.17;95.37
63819;BME280;49970;54.976;73.248;2022-12-20T09:41:33;100114.59;;;-3.14;95.46
63819;BME280;49970;54.976;73.248;2022-12-20T09:44:31;100114.63;;;-3.16;95.25
63819;BME280;49970;54.976;73.248;2022-12-20T09:47:16;100118.97;;;-3.16;95.28
63819;BME280;49970;54.976;73.248;2022-12-20T09:49:53;100108.78;;;-3.26;95.49
63819;BME280;49970;54.976;73.248;2022-12-20T10:01:24;100119.09;;;-3.24;95.28
63819;BME280;49970;54.976;73.248;2022-12-20T10:03:50;100117.41;;;-3.25;95.06
63819;BME280;49970;54.976;73.248;2022-12-20T10:09:25;100102.72;;;-3.26;94.66
63819;BME280;49970;54.976;73.248;2022-12-20T10:23:02;100105.44;;;-3.32;95.33
63819;BME280;49970;54.976;73.248;2022-12-20T10:25:31;100120.84;;;-3.26;95.08
63819;BME280;49970;54.976;73.248;2022-12-20T10:28:14;100114.81;;;-3.27;95.31
63819;BME280;49970;54.976;73.248;2022-12-20T10:30:42;100115.72;;;-3.28;95.10
63819;BME280;49970;54.976;73.248;2022-12-20T10:33:27;100100.31;;;-3.35;95.40
63819;BME280;49970;54.976;73.248;2022-12-20T10:35:53;100108.91;;;-3.33;95.41
63819;BME280;49970;54.976;73.248;2022-12-20T10:38:20;100115.75;;;-3.29;95.62
63819;BME280;49970;54.976;73.248;2022-12-20T10:43:24;100110.63;;;-3.32;95.30
63819;BME280;49970;54.976;73.248;2022-12-20T10:45:59;100128.63;;;-3.26;95.21
63819;BME280;49970;54.976;73.248;2022-12-20T10:48:33;100130.34;;;-3.27;95.35
63819;BME280;49970;54.976;73.248;2022-12-20T10:53:27;100125.19;;;-3.27;95.32
63819;BME280;49970;54.976;73.248;2022-12-20T10:56:07;100120.06;;;-3.30;95.18
63819;BME280;49970;54.976;73.248;2022-12-20T10:58:35;100116.66;;;-3.32;95.28
63819;BME280;49970;54.976;73.248;2022-12-20T11:01:12;100114.97;;;-3.34;95.38
63819;BME280;49970;54.976;73.248;2022-12-20T11:04:04;100108.09;;;-3.37;95.42
63819;BME280;49970;54.976;73.248;2022-12-20T11:09:26;100128.69;;;-3.29;95.29
63819;BME280;49970;54.976;73.248;2022-12-20T11:12:14;100120.94;;;-3.29;95.39
63819;BME280;49970;54.976;73.248;2022-12-20T11:14:47;100119.22;;;-3.30;94.82
63819;BME280;49970;54.976;73.248;2022-12-20T11:17:34;100125.34;;;-3.34;94.86
63819;BME280;49970;54.976;73.248;2022-12-20T11:23:06;100116.91;;;-3.45;95.38
63819;BME280;49970;54.976;73.248;2022-12-20T11:25:48;100132.25;;;-3.36;95.03
63819;BME280;49970;54.976;73.248;2022-12-20T11:28:41;100123.72;;;-3.41;95.29
63819;BME280;49970;54.976;73.248;2022-12-20T11:31:14;100131.44;;;-3.38;95.43
63819;BME280;49970;54.976;73.248;2022-12-20T11:36:37;100126.28;;;-3.38;94.92
63819;BME280;49970;54.976;73.248;2022-12-20T11:42:31;100099.75;;;-3.51;94.93
63819;BME280;49970;54.976;73.248;2022-12-20T11:45:23;100122.00;;;-3.41;95.24
63819;BME280;49970;54.976;73.248;2022-12-20T11:48:55;100123.72;;;-3.43;95.48
63819;BME280;49970;54.976;73.248;2022-12-20T11:54:02;100122.03;;;-3.44;95.23
63819;BME280;49970;54.976;73.248;2022-12-20T11:56:43;100133.25;;;-3.43;95.52
63819;BME280;49970;54.976;73.248;2022-12-20T12:02:16;100126.41;;;-3.46;95.21
63819;BME280;49970;54.976;73.248;2022-12-20T12:05:03;100124.66;;;-3.45;95.23
63819;BME280;49970;54.976;73.248;2022-12-20T12:07:34;100128.94;;;-3.44;95.19
63819;BME280;49970;54.976;73.248;2022-12-20T12:12:46;100115.25;;;-3.49;95.70
63819;BME280;49970;54.976;73.248;2022-12-20T12:15:27;100126.41;;;-3.47;96.23
63819;BME280;49970;54.976;73.248;2022-12-20T12:18:00;100125.59;;;-3.49;95.76
63819;BME280;49970;54.976;73.248;2022-12-20T12:26:08;100112.72;;;-3.56;95.49
63819;BME280;49970;54.976;73.248;2022-12-20T12:28:35;100118.72;;;-3.52;95.69
63819;BME280;49970;54.976;73.248;2022-12-20T12:31:16;100124.75;;;-3.52;96.10
63819;BME280;49970;54.976;73.248;2022-12-20T12:42:42;100118.75;;;-3.54;95.61
63819;BME280;49970;54.976;73.248;2022-12-20T12:48:19;100117.06;;;-3.56;95.78
63819;BME280;49970;54.976;73.248;2022-12-20T12:50:55;100100.84;;;-3.66;95.75
63819;BME280;49970;54.976;73.248;2022-12-20T12:53:42;100125.75;;;-3.59;96.19
63819;BME280;49970;54.976;73.248;2022-12-20T13:01:53;100128.38;;;-3.62;96.49
63819;BME280;49970;54.976;73.248;2022-12-20T13:11:55;100114.72;;;-3.70;96.21
63819;BME280;49970;54.976;73.248;2022-12-20T13:22:22;100115.59;;;-3.71;95.99
63819;BME280;49970;54.976;73.248;2022-12-20T13:24:59;100108.72;;;-3.73;96.22
63819;BME280;49970;54.976;73.248;2022-12-20T13:27:37;100126.75;;;-3.67;96.38
63819;BME280;49970;54.976;73.248;2022-12-20T13:32:57;100125.94;;;-3.71;95.99
63819;BME280;49970;54.976;73.248;2022-12-20T13:39:32;100133.66;;;-3.69;96.13
63819;BME280;49970;54.976;73.248;2022-12-20T13:44:56;100117.38;;;-3.74;96.52
63819;BME280;49970;54.976;73.248;2022-12-20T13:47:30;100125.94;;;-3.71;96.06
63819;BME280;49970;54.976;73.248;2022-12-20T13:50:00;100127.69;;;-3.71;95.72
63819;BME280;49970;54.976;73.248;2022-12-20T13:52:30;100131.97;;;-3.70;95.58
63819;BME280;49970;54.976;73.248;2022-12-20T13:54:59;100125.03;;;-3.68;96.37
63819;BME280;49970;54.976;73.248;2022-12-20T13:57:32;100116.53;;;-3.75;95.91
63819;BME280;49970;54.976;73.248;2022-12-20T14:00:11;100114.72;;;-3.70;96.33
63819;BME280;49970;54.976;73.248;2022-12-20T14:02:50;100125.91;;;-3.69;96.20
63819;BME280;49970;54.976;73.248;2022-12-20T14:05:23;100114.75;;;-3.71;95.88
63819;BME280;49970;54.976;73.248;2022-12-20T14:08:12;100116.44;;;-3.70;95.92
63819;BME280;49970;54.976;73.248;2022-12-20T14:10:43;100112.97;;;-3.69;96.43
63819;BME280;49970;54.976;73.248;2022-12-20T14:13:23;100109.56;;;-3.71;95.93
63819;BME280;49970;54.976;73.248;2022-12-20T14:15:51;100106.91;;;-3.68;96.63
63819;BME280;49970;54.976;73.248;2022-12-20T14:18:20;100111.22;;;-3.69;96.62
63819;BME280;49970;54.976;73.248;2022-12-20T14:21:07;100111.22;;;-3.69;96.20
63819;BME280;49970;54.976;73.248;2022-12-20T14:25:04;100104.41;;;-3.73;96.43
63819;BME280;49970;54.976;73.248;2022-12-20T14:27:37;100083.03;;;-3.86;96.09
63819;BME280;49970;54.976;73.248;2022-12-20T14:30:26;100107.84;;;-3.72;96.11
63819;BME280;49970;54.976;73.248;2022-12-20T14:33:25;100101.00;;;-3.75;96.15
63819;BME280;49970;54.976;73.248;2022-12-20T14:37:25;100108.81;;;-3.78;95.92
63819;BME280;49970;54.976;73.248;2022-12-20T14:40:47;100091.75;;;-3.91;96.49
63819;BME280;49970;54.976;73.248;2022-12-20T14:43:14;100099.53;;;-3.91;95.74
63819;BME280;49970;54.976;73.248;2022-12-20T14:45:41;100119.19;;;-3.80;95.63
63819;BME280;49970;54.976;73.248;2022-12-20T14:48:15;100115.75;;;-3.80;96.55
63819;BME280;49970;54.976;73.248;2022-12-20T14:50:51;100101.19;;;-3.87;96.18
63819;BME280;49970;54.976;73.248;2022-12-20T14:53:22;100117.41;;;-3.76;95.64
63819;BME280;49970;54.976;73.248;2022-12-20T14:55:50;100117.38;;;-3.74;96.33
63819;BME280;49970;54.976;73.248;2022-12-20T15:00:59;100113.00;;;-3.71;96.60
63819;BME280;49970;54.976;73.248;2022-12-20T15:03:32;100118.09;;;-3.68;96.33
63819;BME280;49970;54.976;73.248;2022-12-20T15:05:59;100120.69;;;-3.66;96.44
63819;BME280;49970;54.976;73.248;2022-12-20T15:08:30;100116.31;;;-3.64;96.38